Terminal Aerodrome Forecast
Issued by NWS Wakefield, VA

Home | Current Version | Previous Version | Text Only | Print | Product List | Glossary On
Versions: 1 2 3 4 5 6 7 8 9 10 11 12 13 14 15 16 17 18 19 20 21 22
000
FTUS41 KAKQ 012300 RRA
TAFRIC
TAF
KRIC 012341Z 0200/0224 10003KT P6SM SCT080
     FM020700 VRB02KT 3SM BR SCT025
     FM021300 03005KT P6SM SCT030 BKN050=

USA.gov is the U.S. government's official web portal to all federal, state and local government web resources and services.